Time,TemperatureF,DewpointF,PressureIn,WindDirection,WindDirectionDegrees,WindSpeedMPH,WindSpeedGustMPH,Humidity,HourlyPrecipIn,Conditions,Clouds,dailyrainin,SoftwareType,DateUTC
2013-05-02 00:01:00,58.4,51.2,0.00,West,270,2.2,2.2,77,0.00,,,0.00,WUHU216HW,2013-05-02 04:01:00,
2013-05-02 00:06:00,58.4,50.9,0.00,WSW,248,0.0,2.2,77,0.00,,,0.00,WUHU216HW,2013-05-02 04:06:00,
2013-05-02 00:11:00,58.4,51.2,0.00,West,270,0.0,0.0,77,0.00,,,0.00,WUHU216HW,2013-05-02 04:11:00,
2013-05-02 00:16:00,58.4,51.2,0.00,West,270,0.8,0.8,77,0.00,,,0.00,WUHU216HW,2013-05-02 04:16:00,
2013-05-02 00:21:00,58.2,50.7,0.00,WSW,248,0.0,4.0,76,0.00,,,0.00,WUHU216HW,2013-05-02 04:21:00,
2013-05-02 00:26:00,58.2,50.7,0.00,WNW,293,0.0,4.0,76,0.00,,,0.00,WUHU216HW,2013-05-02 04:26:00,
2013-05-02 00:31:00,58.2,50.7,0.00,West,270,0.0,2.4,76,0.00,,,0.00,WUHU216HW,2013-05-02 04:31:00,
2013-05-02 00:36:00,58.1,50.5,0.00,West,270,0.0,0.0,76,0.00,,,0.00,WUHU216HW,2013-05-02 04:36:00,
2013-05-02 00:41:00,58.1,50.9,0.00,West,270,0.0,1.7,77,0.00,,,0.00,WUHU216HW,2013-05-02 04:41:00,
2013-05-02 00:46:00,57.9,50.7,0.00,West,270,0.0,1.7,77,0.00,,,0.00,WUHU216HW,2013-05-02 04:46:00,
2013-05-02 00:51:00,57.9,50.7,0.00,West,270,0.0,0.0,77,0.00,,,0.00,WUHU216HW,2013-05-02 04:51:00,
2013-05-02 00:56:00,57.9,50.7,0.00,WNW,293,0.0,0.0,77,0.00,,,0.00,WUHU216HW,2013-05-02 04:56:00,
2013-05-02 01:01:00,57.7,50.5,0.00,West,270,0.0,0.0,77,0.00,,,0.00,WUHU216HW,2013-05-02 05:01:00,
2013-05-02 01:06:00,57.7,50.5,0.00,West,270,0.0,0.0,77,0.00,,,0.00,WUHU216HW,2013-05-02 05:06:00,
2013-05-02 01:11:00,57.7,50.5,0.00,West,270,0.0,0.0,77,0.00,,,0.00,WUHU216HW,2013-05-02 05:11:00,
2013-05-02 01:16:00,57.7,50.5,0.00,West,270,0.0,0.0,77,0.00,,,0.00,WUHU216HW,2013-05-02 05:16:00,
2013-05-02 01:21:00,57.7,50.5,0.00,WNW,293,0.0,0.0,77,0.00,,,0.00,WUHU216HW,2013-05-02 05:21:00,
2013-05-02 01:26:00,57.5,50.3,0.00,WNW,293,0.0,0.0,77,0.00,,,0.00,WUHU216HW,2013-05-02 05:26:00,
2013-05-02 01:31:00,57.5,50.3,0.00,West,270,0.0,0.0,77,0.00,,,0.00,WUHU216HW,2013-05-02 05:31:00,
2013-05-02 01:36:00,57.5,50.7,0.00,West,270,0.0,4.0,78,0.00,,,0.00,WUHU216HW,2013-05-02 05:36:00,
2013-05-02 01:41:00,57.3,50.5,0.00,West,270,2.4,4.0,78,0.00,,,0.00,WUHU216HW,2013-05-02 05:41:00,
2013-05-02 01:46:00,57.3,50.5,0.00,West,270,0.0,2.4,78,0.00,,,0.00,WUHU216HW,2013-05-02 05:46:00,
2013-05-02 01:51:00,57.3,50.5,0.00,West,270,0.0,0.0,78,0.00,,,0.00,WUHU216HW,2013-05-02 05:51:00,
2013-05-02 01:56:00,57.5,50.7,0.00,West,270,0.0,3.5,78,0.00,,,0.00,WUHU216HW,2013-05-02 05:56:00,
2013-05-02 02:01:00,57.3,50.5,0.00,West,270,0.0,3.5,78,0.00,,,0.00,WUHU216HW,2013-05-02 06:01:00,
2013-05-02 02:06:00,57.3,50.5,0.00,West,270,0.0,0.0,78,0.00,,,0.00,WUHU216HW,2013-05-02 06:06:00,
2013-05-02 02:11:00,57.3,50.1,0.00,West,270,2.4,2.4,77,0.00,,,0.00,WUHU216HW,2013-05-02 06:11:00,
2013-05-02 02:16:00,57.3,50.1,0.00,West,270,0.0,2.4,77,0.00,,,0.00,WUHU216HW,2013-05-02 06:16:00,
2013-05-02 02:21:00,57.0,49.8,0.00,WNW,293,0.0,1.3,77,0.00,,,0.00,WUHU216HW,2013-05-02 06:21:00,
2013-05-02 02:26:00,57.0,49.8,0.00,South,180,0.0,1.3,77,0.00,,,0.00,WUHU216HW,2013-05-02 06:26:00,
2013-05-02 02:31:00,57.0,50.1,0.00,West,270,0.0,0.0,77,0.00,,,0.00,WUHU216HW,2013-05-02 06:31:00,
2013-05-02 02:36:00,56.8,49.6,0.00,West,270,0.0,0.0,77,0.00,,,0.00,WUHU216HW,2013-05-02 06:36:00,
2013-05-02 02:41:00,56.8,49.6,0.00,West,270,0.0,0.0,77,0.00,,,0.00,WUHU216HW,2013-05-02 06:41:00,
2013-05-02 02:46:00,56.8,50.0,0.00,West,270,0.0,0.0,78,0.00,,,0.00,WUHU216HW,2013-05-02 06:46:00,
2013-05-02 02:51:00,56.4,49.6,0.00,WNW,293,0.0,0.0,78,0.00,,,0.00,WUHU216HW,2013-05-02 06:51:00,
2013-05-02 02:56:00,56.4,49.6,0.00,WNW,293,0.0,0.0,78,0.00,,,0.00,WUHU216HW,2013-05-02 06:56:00,
2013-05-02 03:01:00,56.3,49.4,0.00,WNW,293,0.0,5.3,78,0.00,,,0.00,WUHU216HW,2013-05-02 07:01:00,
2013-05-02 03:06:00,56.3,49.4,0.00,WNW,293,0.0,5.3,78,0.00,,,0.00,WUHU216HW,2013-05-02 07:06:00,
2013-05-02 03:11:00,56.1,49.2,0.00,WNW,293,0.0,0.0,78,0.00,,,0.00,WUHU216HW,2013-05-02 07:11:00,
2013-05-02 03:16:00,56.1,49.2,0.00,WNW,293,0.0,0.0,78,0.00,,,0.00,WUHU216HW,2013-05-02 07:16:00,
2013-05-02 03:21:00,56.1,49.2,0.00,WNW,293,0.0,0.0,78,0.00,,,0.00,WUHU216HW,2013-05-02 07:21:00,
2013-05-02 03:27:00,56.1,49.6,0.00,WNW,293,0.0,0.0,79,0.00,,,0.00,WUHU216HW,2013-05-02 07:27:00,
2013-05-02 03:31:00,56.1,49.6,0.00,West,270,0.0,0.0,79,0.00,,,0.00,WUHU216HW,2013-05-02 07:31:00,
2013-05-02 03:37:00,55.9,49.8,0.00,West,270,0.0,0.0,80,0.00,,,0.00,WUHU216HW,2013-05-02 07:37:00,
2013-05-02 03:41:00,55.9,49.8,0.00,West,270,0.0,0.0,80,0.00,,,0.00,WUHU216HW,2013-05-02 07:41:00,
2013-05-02 03:47:00,55.9,49.8,0.00,West,270,0.0,0.0,80,0.00,,,0.00,WUHU216HW,2013-05-02 07:47:00,
2013-05-02 03:51:00,55.9,50.1,0.00,West,270,0.0,0.0,81,0.00,,,0.00,WUHU216HW,2013-05-02 07:51:00,
2013-05-02 03:57:00,55.9,50.1,0.00,West,270,0.0,0.0,81,0.00,,,0.00,WUHU216HW,2013-05-02 07:57:00,
2013-05-02 04:02:00,55.9,50.4,0.00,North,0,0.0,0.0,82,0.00,,,0.00,WUHU216HW,2013-05-02 08:02:00,
2013-05-02 04:07:00,55.9,50.4,0.00,West,270,0.0,0.0,82,0.00,,,0.00,WUHU216HW,2013-05-02 08:07:00,
2013-05-02 04:12:00,55.7,50.2,0.00,WNW,293,0.0,0.0,82,0.00,,,0.00,WUHU216HW,2013-05-02 08:12:00,
2013-05-02 04:17:00,55.7,50.2,0.00,WNW,293,0.0,0.0,82,0.00,,,0.00,WUHU216HW,2013-05-02 08:17:00,
2013-05-02 04:22:00,55.5,50.1,0.00,WNW,293,0.0,0.0,82,0.00,,,0.00,WUHU216HW,2013-05-02 08:22:00,
2013-05-02 04:27:00,55.5,50.1,0.00,West,270,0.0,2.6,82,0.00,,,0.00,WUHU216HW,2013-05-02 08:27:00,
2013-05-02 04:32:00,55.4,49.9,0.00,WNW,293,0.0,2.6,82,0.00,,,0.00,WUHU216HW,2013-05-02 08:32:00,
2013-05-02 04:37:00,55.4,50.2,0.00,WNW,293,0.0,3.1,83,0.00,,,0.00,WUHU216HW,2013-05-02 08:37:00,
2013-05-02 04:42:00,55.4,50.2,0.00,West,270,0.0,3.1,83,0.00,,,0.00,WUHU216HW,2013-05-02 08:42:00,
2013-05-02 04:47:00,55.4,50.2,0.00,West,270,0.0,0.0,83,0.00,,,0.00,WUHU216HW,2013-05-02 08:47:00,
2013-05-02 04:52:00,55.2,50.0,0.00,WNW,293,0.0,0.0,83,0.00,,,0.00,WUHU216HW,2013-05-02 08:52:00,
2013-05-02 04:57:00,55.4,50.0,0.00,West,270,0.0,0.0,83,0.00,,,0.00,WUHU216HW,2013-05-02 08:57:00,
2013-05-02 05:02:00,55.2,50.0,0.00,West,270,0.0,0.0,83,0.00,,,0.00,WUHU216HW,2013-05-02 09:02:00,
2013-05-02 05:07:00,55.4,50.2,0.00,West,270,0.0,0.0,83,0.00,,,0.00,WUHU216HW,2013-05-02 09:07:00,
2013-05-02 05:12:00,55.2,50.0,0.00,West,270,0.0,0.0,83,0.00,,,0.00,WUHU216HW,2013-05-02 09:12:00,
2013-05-02 05:17:00,55.2,50.0,0.00,West,270,0.0,0.0,83,0.00,,,0.00,WUHU216HW,2013-05-02 09:17:00,
2013-05-02 05:22:00,55.4,50.0,0.00,West,270,0.0,0.0,83,0.00,,,0.00,WUHU216HW,2013-05-02 09:22:00,
2013-05-02 05:27:00,55.4,50.2,0.00,WNW,293,0.0,0.0,83,0.00,,,0.00,WUHU216HW,2013-05-02 09:27:00,
2013-05-02 05:32:00,55.4,50.2,0.00,West,270,0.0,0.0,83,0.00,,,0.00,WUHU216HW,2013-05-02 09:32:00,
2013-05-02 05:37:00,55.5,50.4,0.00,West,270,0.0,0.0,83,0.00,,,0.00,WUHU216HW,2013-05-02 09:37:00,
2013-05-02 05:42:00,55.4,50.2,0.00,West,270,0.0,0.0,83,0.00,,,0.00,WUHU216HW,2013-05-02 09:42:00,
2013-05-02 05:47:00,55.4,50.2,0.00,West,270,0.0,0.0,83,0.00,,,0.00,WUHU216HW,2013-05-02 09:47:00,
2013-05-02 05:52:00,55.4,50.2,0.00,West,270,0.0,0.0,83,0.00,,,0.00,WUHU216HW,2013-05-02 09:52:00,
2013-05-02 05:57:00,55.2,50.0,0.00,WNW,293,3.5,3.5,83,0.00,,,0.00,WUHU216HW,2013-05-02 09:57:00,
2013-05-02 06:02:00,55.2,50.0,0.00,West,270,0.0,3.5,83,0.00,,,0.00,WUHU216HW,2013-05-02 10:02:00,
2013-05-02 06:07:00,55.2,50.0,0.00,WNW,293,0.0,2.9,83,0.00,,,0.00,WUHU216HW,2013-05-02 10:07:00,
2013-05-02 06:12:00,55.2,50.3,0.00,West,270,0.0,2.6,84,0.00,,,0.00,WUHU216HW,2013-05-02 10:12:00,
2013-05-02 06:17:00,55.2,50.3,0.00,West,270,0.0,1.7,84,0.00,,,0.00,WUHU216HW,2013-05-02 10:17:00,
2013-05-02 06:22:00,55.2,50.3,0.00,West,270,0.0,0.0,84,0.00,,,0.00,WUHU216HW,2013-05-02 10:22:00,
2013-05-02 06:27:00,55.2,50.3,0.00,West,270,0.0,4.0,84,0.00,,,0.00,WUHU216HW,2013-05-02 10:27:00,
2013-05-02 06:32:00,55.2,50.0,0.00,West,270,2.0,4.0,83,0.00,,,0.00,WUHU216HW,2013-05-02 10:32:00,
2013-05-02 06:37:00,55.2,50.0,0.00,West,270,0.0,2.0,83,0.00,,,0.00,WUHU216HW,2013-05-02 10:37:00,
2013-05-02 06:42:00,55.2,50.0,0.00,West,270,0.0,2.9,83,0.00,,,0.00,WUHU216HW,2013-05-02 10:42:00,
2013-05-02 06:47:00,55.2,50.0,0.00,West,270,0.0,2.9,83,0.00,,,0.00,WUHU216HW,2013-05-02 10:47:00,
2013-05-02 06:52:00,55.2,50.0,0.00,West,270,0.0,0.0,83,0.00,,,0.00,WUHU216HW,2013-05-02 10:52:00,
2013-05-02 06:57:00,55.2,50.0,0.00,West,270,0.0,3.3,83,0.00,,,0.00,WUHU216HW,2013-05-02 10:57:00,
2013-05-02 07:02:00,55.2,50.0,0.00,West,270,0.0,3.3,83,0.00,,,0.00,WUHU216HW,2013-05-02 11:02:00,
2013-05-02 07:07:00,55.4,50.2,0.00,West,270,0.0,0.0,83,0.00,,,0.00,WUHU216HW,2013-05-02 11:07:00,
2013-05-02 07:12:00,55.5,50.4,0.00,WNW,293,0.0,0.0,83,0.00,,,0.00,WUHU216HW,2013-05-02 11:12:00,
2013-05-02 07:17:00,55.5,50.4,0.00,WNW,293,0.0,0.0,83,0.00,,,0.00,WUHU216HW,2013-05-02 11:17:00,
2013-05-02 07:22:00,55.5,50.1,0.00,WNW,293,4.6,4.6,82,0.00,,,0.00,WUHU216HW,2013-05-02 11:22:00,
2013-05-02 07:27:00,55.5,50.1,0.00,WNW,293,0.0,4.6,82,0.00,,,0.00,WUHU216HW,2013-05-02 11:27:00,
2013-05-02 07:32:00,55.5,50.1,0.00,WNW,293,0.0,2.9,82,0.00,,,0.00,WUHU216HW,2013-05-02 11:32:00,
2013-05-02 07:37:00,55.7,50.2,0.00,West,270,0.0,2.9,82,0.00,,,0.00,WUHU216HW,2013-05-02 11:37:00,
2013-05-02 07:42:00,55.7,50.2,0.00,West,270,0.0,0.0,82,0.00,,,0.00,WUHU216HW,2013-05-02 11:42:00,
2013-05-02 07:47:00,55.7,50.2,0.00,West,270,0.0,0.0,82,0.00,,,0.00,WUHU216HW,2013-05-02 11:47:00,
2013-05-02 07:52:00,55.7,50.2,0.00,West,270,0.0,0.0,82,0.00,,,0.00,WUHU216HW,2013-05-02 11:52:00,
2013-05-02 07:57:00,55.7,50.2,0.00,West,270,0.0,0.0,82,0.00,,,0.00,WUHU216HW,2013-05-02 11:57:00,
2013-05-02 08:02:00,55.7,50.2,0.00,WNW,293,0.0,0.0,82,0.00,,,0.00,WUHU216HW,2013-05-02 12:02:00,
2013-05-02 08:07:00,55.7,50.2,0.00,WNW,293,0.0,1.7,82,0.00,,,0.00,WUHU216HW,2013-05-02 12:07:00,
2013-05-02 08:12:00,55.7,50.2,0.00,WNW,293,2.0,2.0,82,0.00,,,0.00,WUHU216HW,2013-05-02 12:12:00,
2013-05-02 08:17:00,55.7,50.2,0.00,WNW,293,0.0,2.0,82,0.00,,,0.00,WUHU216HW,2013-05-02 12:17:00,
2013-05-02 08:22:00,55.9,50.4,0.00,WNW,293,0.0,1.3,82,0.00,,,0.00,WUHU216HW,2013-05-02 12:22:00,
2013-05-02 08:27:00,55.9,50.4,0.00,WNW,293,2.9,3.3,82,0.00,,,0.00,WUHU216HW,2013-05-02 12:27:00,
2013-05-02 08:32:00,56.1,50.6,0.00,WNW,293,3.5,3.5,82,0.00,,,0.00,WUHU216HW,2013-05-02 12:32:00,
2013-05-02 08:37:00,56.4,51.0,0.00,WNW,293,0.0,3.5,82,0.00,,,0.00,WUHU216HW,2013-05-02 12:37:00,
2013-05-02 08:42:00,56.8,51.0,0.00,WNW,293,0.0,2.2,81,0.00,,,0.00,WUHU216HW,2013-05-02 12:42:00,
2013-05-02 08:47:00,56.8,51.2,0.00,WNW,293,0.0,2.2,81,0.00,,,0.00,WUHU216HW,2013-05-02 12:47:00,
2013-05-02 08:52:00,57.0,50.9,0.00,WNW,293,4.6,4.6,80,0.00,,,0.00,WUHU216HW,2013-05-02 12:52:00,
2013-05-02 08:57:00,57.3,50.9,0.00,West,270,0.0,4.6,79,0.00,,,0.00,WUHU216HW,2013-05-02 12:57:00,
2013-05-02 09:02:00,57.3,50.9,0.00,WNW,293,4.6,4.6,79,0.00,,,0.00,WUHU216HW,2013-05-02 13:02:00,
2013-05-02 09:07:00,57.3,50.9,0.00,West,270,2.0,5.1,79,0.00,,,0.00,WUHU216HW,2013-05-02 13:07:00,
2013-05-02 09:12:00,57.5,51.0,0.00,WNW,293,4.0,5.8,79,0.00,,,0.00,WUHU216HW,2013-05-02 13:12:00,
2013-05-02 09:17:00,57.5,51.0,0.00,WNW,293,6.2,6.2,79,0.00,,,0.00,WUHU216HW,2013-05-02 13:17:00,
2013-05-02 09:22:00,57.5,50.9,0.00,West,270,2.0,6.2,78,0.00,,,0.00,WUHU216HW,2013-05-02 13:22:00,
2013-05-02 09:27:00,57.7,50.9,0.00,WNW,293,2.2,4.9,78,0.00,,,0.00,WUHU216HW,2013-05-02 13:27:00,
2013-05-02 09:32:00,57.9,51.0,0.00,WNW,293,2.9,6.0,78,0.00,,,0.00,WUHU216HW,2013-05-02 13:32:00,
2013-05-02 09:37:00,57.9,50.7,0.00,West,270,1.5,6.0,77,0.00,,,0.00,WUHU216HW,2013-05-02 13:37:00,
2013-05-02 09:42:00,57.9,50.7,0.00,WNW,293,2.9,4.9,77,0.00,,,0.00,WUHU216HW,2013-05-02 13:42:00,
2013-05-02 09:47:00,57.7,50.5,0.00,West,270,1.5,4.4,77,0.00,,,0.00,WUHU216HW,2013-05-02 13:47:00,
2013-05-02 09:52:00,57.5,50.3,0.00,West,270,3.1,4.4,77,0.00,,,0.00,WUHU216HW,2013-05-02 13:52:00,
2013-05-02 09:57:00,57.7,50.5,0.00,West,270,4.0,5.5,77,0.00,,,0.00,WUHU216HW,2013-05-02 13:57:00,
2013-05-02 10:02:00,57.7,50.5,0.00,WNW,293,2.9,5.5,77,0.00,,,0.00,WUHU216HW,2013-05-02 14:02:00,
2013-05-02 10:07:00,57.9,50.7,0.00,WNW,293,5.1,5.1,77,0.00,,,0.00,WUHU216HW,2013-05-02 14:07:00,
2013-05-02 10:12:00,58.1,50.9,0.00,WNW,293,3.1,5.1,77,0.00,,,0.00,WUHU216HW,2013-05-02 14:12:00,
2013-05-02 10:17:00,58.6,51.0,0.00,North,0,0.0,4.6,76,0.00,,,0.00,WUHU216HW,2013-05-02 14:17:00,
2013-05-02 10:22:00,58.8,51.2,0.00,WNW,293,6.4,7.1,76,0.00,,,0.00,WUHU216HW,2013-05-02 14:22:00,
2013-05-02 10:27:00,58.8,50.9,0.00,WNW,293,3.5,7.1,75,0.00,,,0.00,WUHU216HW,2013-05-02 14:27:00,
2013-05-02 10:32:00,58.8,50.9,0.00,West,270,6.7,7.1,75,0.00,,,0.00,WUHU216HW,2013-05-02 14:32:00,
2013-05-02 10:37:00,58.8,50.9,0.00,WNW,293,2.0,6.7,75,0.00,,,0.00,WUHU216HW,2013-05-02 14:37:00,
2013-05-02 10:42:00,58.8,50.9,0.00,WNW,293,7.6,8.0,75,0.00,,,0.00,WUHU216HW,2013-05-02 14:42:00,
2013-05-02 10:47:00,58.8,50.9,0.00,West,270,5.1,8.0,75,0.00,,,0.00,WUHU216HW,2013-05-02 14:47:00,
2013-05-02 10:52:00,59.1,51.2,0.00,West,270,3.1,7.1,75,0.00,,,0.00,WUHU216HW,2013-05-02 14:52:00,
2013-05-02 10:57:00,59.3,51.4,0.00,West,270,1.1,7.1,75,0.00,,,0.00,WUHU216HW,2013-05-02 14:57:00,
2013-05-02 11:02:00,59.1,51.2,0.00,West,270,6.4,6.4,75,0.00,,,0.00,WUHU216HW,2013-05-02 15:02:00,
2013-05-02 11:07:00,59.0,51.2,0.00,WNW,293,2.2,6.4,75,0.00,,,0.00,WUHU216HW,2013-05-02 15:07:00,
2013-05-02 11:12:00,58.8,50.9,0.00,WNW,293,2.6,6.7,75,0.00,,,0.00,WUHU216HW,2013-05-02 15:12:00,
2013-05-02 11:17:00,58.8,51.2,0.00,West,270,0.0,6.7,76,0.00,,,0.00,WUHU216HW,2013-05-02 15:17:00,
2013-05-02 11:22:00,58.8,51.2,0.00,West,270,2.9,6.2,76,0.00,,,0.00,WUHU216HW,2013-05-02 15:22:00,
2013-05-02 11:27:00,58.8,51.2,0.00,West,270,0.0,6.2,76,0.00,,,0.00,WUHU216HW,2013-05-02 15:27:00,
2013-05-02 11:32:00,58.8,51.2,0.00,West,270,0.4,4.6,76,0.00,,,0.00,WUHU216HW,2013-05-02 15:32:00,
2013-05-02 11:37:00,58.8,51.6,0.00,West,270,2.2,6.2,77,0.00,,,0.00,WUHU216HW,2013-05-02 15:37:00,
2013-05-02 11:42:00,58.8,51.6,0.00,WNW,293,4.0,6.2,77,0.00,,,0.00,WUHU216HW,2013-05-02 15:42:00,
2013-05-02 11:47:00,59.0,51.8,0.00,WNW,293,0.0,6.7,77,0.00,,,0.00,WUHU216HW,2013-05-02 15:47:00,
2013-05-02 11:52:00,59.5,52.5,0.00,WNW,293,2.6,6.7,77,0.00,,,0.00,WUHU216HW,2013-05-02 15:52:00,
2013-05-02 11:57:00,60.0,52.5,0.00,WNW,293,4.4,6.2,76,0.00,,,0.00,WUHU216HW,2013-05-02 15:57:00,
2013-05-02 12:02:00,60.4,52.8,0.00,West,270,3.3,6.0,76,0.00,,,0.00,WUHU216HW,2013-05-02 16:02:00,
2013-05-02 12:07:00,60.9,53.4,0.00,WNW,293,0.0,3.8,76,0.00,,,0.00,WUHU216HW,2013-05-02 16:07:00,
2013-05-02 12:12:00,61.3,53.3,0.00,WNW,293,0.0,4.2,75,0.00,,,0.00,WUHU216HW,2013-05-02 16:12:00,
2013-05-02 12:17:00,61.5,53.1,0.00,West,270,3.1,6.2,74,0.00,,,0.00,WUHU216HW,2013-05-02 16:17:00,
2013-05-02 12:22:00,61.8,53.4,0.00,West,270,4.0,6.2,74,0.00,,,0.00,WUHU216HW,2013-05-02 16:22:00,
2013-05-02 12:27:00,62.2,53.4,0.00,WNW,293,0.0,4.0,73,0.00,,,0.00,WUHU216HW,2013-05-02 16:27:00,
2013-05-02 12:32:00,62.4,53.4,0.00,WNW,293,0.0,3.5,73,0.00,,,0.00,WUHU216HW,2013-05-02 16:32:00,
2013-05-02 12:37:00,62.4,53.6,0.00,WNW,293,0.0,3.3,73,0.00,,,0.00,WUHU216HW,2013-05-02 16:37:00,
2013-05-02 12:42:00,63.1,54.3,0.00,WNW,293,2.4,4.6,73,0.00,,,0.00,WUHU216HW,2013-05-02 16:42:00,
2013-05-02 12:47:00,63.5,54.3,0.00,WNW,293,2.6,4.6,72,0.00,,,0.00,WUHU216HW,2013-05-02 16:47:00,
2013-05-02 12:52:00,63.6,54.5,0.00,WNW,293,3.5,4.2,72,0.00,,,0.00,WUHU216HW,2013-05-02 16:52:00,
2013-05-02 12:57:00,64.0,54.5,0.00,WNW,293,0.0,3.5,71,0.00,,,0.00,WUHU216HW,2013-05-02 16:57:00,
2013-05-02 13:02:00,64.2,54.6,0.00,WNW,293,0.8,4.6,71,0.00,,,0.00,WUHU216HW,2013-05-02 17:02:00,
2013-05-02 13:07:00,64.5,54.6,0.00,West,270,4.4,5.3,70,0.00,,,0.00,WUHU216HW,2013-05-02 17:07:00,
2013-05-02 13:12:00,64.7,54.8,0.00,SSW,203,0.0,6.7,70,0.00,,,0.00,WUHU216HW,2013-05-02 17:12:00,
2013-05-02 13:17:00,64.9,54.9,0.00,SW,225,0.0,6.7,70,0.00,,,0.00,WUHU216HW,2013-05-02 17:17:00,
2013-05-02 13:22:00,65.1,55.1,0.00,West,270,3.8,5.1,70,0.00,,,0.00,WUHU216HW,2013-05-02 17:22:00,
2013-05-02 13:27:00,65.3,55.3,0.00,West,270,0.8,5.1,70,0.00,,,0.00,WUHU216HW,2013-05-02 17:27:00,
2013-05-02 13:32:00,65.6,55.2,0.00,WNW,293,3.8,7.8,69,0.00,,,0.00,WUHU216HW,2013-05-02 17:32:00,
2013-05-02 13:37:00,65.6,54.7,0.00,NW,315,6.9,7.8,68,0.00,,,0.00,WUHU216HW,2013-05-02 17:37:00,
2013-05-02 13:42:00,65.6,54.3,0.00,West,270,2.6,7.1,67,0.00,,,0.00,WUHU216HW,2013-05-02 17:42:00,
2013-05-02 13:47:00,66.0,54.6,0.00,WNW,293,3.3,7.1,67,0.00,,,0.00,WUHU216HW,2013-05-02 17:47:00,
2013-05-02 13:52:00,66.2,54.8,0.00,WNW,293,4.2,6.4,67,0.00,,,0.00,WUHU216HW,2013-05-02 17:52:00,
2013-05-02 13:57:00,66.2,54.8,0.00,WNW,293,4.2,4.9,67,0.00,,,0.00,WUHU216HW,2013-05-02 17:57:00,
2013-05-02 14:02:00,66.2,54.8,0.00,WNW,293,2.9,5.1,67,0.00,,,0.00,WUHU216HW,2013-05-02 18:02:00,
2013-05-02 14:07:00,66.0,54.6,0.00,West,270,0.0,5.1,67,0.00,,,0.00,WUHU216HW,2013-05-02 18:07:00,
2013-05-02 14:12:00,66.0,54.6,0.00,West,270,3.3,5.1,67,0.00,,,0.00,WUHU216HW,2013-05-02 18:12:00,
2013-05-02 14:17:00,66.2,54.8,0.00,South,180,0.0,5.1,67,0.00,,,0.00,WUHU216HW,2013-05-02 18:17:00,
2013-05-02 14:22:00,66.5,55.6,0.00,West,270,2.6,5.1,68,0.00,,,0.00,WUHU216HW,2013-05-02 18:22:00,
2013-05-02 14:27:00,66.5,55.2,0.00,WNW,293,3.3,3.8,67,0.00,,,0.00,WUHU216HW,2013-05-02 18:27:00,
2013-05-02 14:32:00,66.3,55.0,0.00,WNW,293,4.0,4.0,67,0.00,,,0.00,WUHU216HW,2013-05-02 18:32:00,
2013-05-02 14:37:00,66.5,55.6,0.00,West,270,0.0,4.0,68,0.00,,,0.00,WUHU216HW,2013-05-02 18:37:00,
2013-05-02 14:42:00,66.7,55.8,0.00,WNW,293,0.0,4.4,68,0.00,,,0.00,WUHU216HW,2013-05-02 18:42:00,
2013-05-02 14:47:00,66.7,55.9,0.00,SW,225,0.0,4.4,68,0.00,,,0.00,WUHU216HW,2013-05-02 18:47:00,
2013-05-02 14:52:00,66.9,55.5,0.00,WNW,293,1.5,3.5,67,0.00,,,0.00,WUHU216HW,2013-05-02 18:52:00,
2013-05-02 14:57:00,66.9,55.5,0.00,West,270,4.2,6.2,67,0.00,,,0.00,WUHU216HW,2013-05-02 18:57:00,
2013-05-02 15:02:00,66.7,54.9,0.00,WNW,293,2.4,6.2,66,0.00,,,0.00,WUHU216HW,2013-05-02 19:02:00,
2013-05-02 15:07:00,66.3,54.6,0.00,WNW,293,4.2,4.9,66,0.00,,,0.00,WUHU216HW,2013-05-02 19:07:00,
2013-05-02 15:12:00,66.3,55.0,0.00,WSW,248,0.0,4.2,67,0.00,,,0.00,WUHU216HW,2013-05-02 19:12:00,
2013-05-02 15:17:00,66.5,55.6,0.00,WNW,293,0.0,4.0,68,0.00,,,0.00,WUHU216HW,2013-05-02 19:17:00,
2013-05-02 15:22:00,66.7,55.4,0.00,WNW,293,0.0,6.0,67,0.00,,,0.00,WUHU216HW,2013-05-02 19:22:00,
2013-05-02 15:27:00,66.7,55.4,0.00,WNW,293,0.0,6.0,67,0.00,,,0.00,WUHU216HW,2013-05-02 19:27:00,
2013-05-02 15:32:00,66.5,55.2,0.00,WNW,293,6.4,6.4,67,0.00,,,0.00,WUHU216HW,2013-05-02 19:32:00,
2013-05-02 15:36:00,66.0,54.2,0.00,South,180,2.6,6.4,66,0.00,,,0.00,WUHU216HW,2013-05-02 19:36:00,
2013-05-02 15:41:00,65.4,54.1,0.00,WNW,293,3.8,5.8,67,0.00,,,0.00,WUHU216HW,2013-05-02 19:41:00,
2013-05-02 15:46:00,65.3,54.0,0.00,WNW,293,0.0,5.8,67,0.00,,,0.00,WUHU216HW,2013-05-02 19:46:00,
2013-05-02 15:51:00,64.9,54.1,0.00,West,270,2.9,5.3,68,0.00,,,0.00,WUHU216HW,2013-05-02 19:51:00,
2013-05-02 15:56:00,64.5,53.7,0.00,West,270,3.1,5.3,68,0.00,,,0.00,WUHU216HW,2013-05-02 19:56:00,
2013-05-02 16:01:00,64.2,53.8,0.00,West,270,3.5,5.5,69,0.00,,,0.00,WUHU216HW,2013-05-02 20:01:00,
2013-05-02 16:06:00,64.0,53.7,0.00,WNW,293,3.1,5.5,69,0.00,,,0.00,WUHU216HW,2013-05-02 20:06:00,
2013-05-02 16:11:00,63.6,53.6,0.00,WNW,293,1.7,6.7,69,0.00,,,0.00,WUHU216HW,2013-05-02 20:11:00,
2013-05-02 16:16:00,63.3,53.4,0.00,West,270,3.5,6.7,70,0.00,,,0.00,WUHU216HW,2013-05-02 20:16:00,
2013-05-02 16:21:00,63.1,53.6,0.00,West,270,0.0,5.3,71,0.00,,,0.00,WUHU216HW,2013-05-02 20:21:00,
2013-05-02 16:26:00,62.7,53.2,0.00,West,270,4.6,5.3,71,0.00,,,0.00,WUHU216HW,2013-05-02 20:26:00,
2013-05-02 16:31:00,62.7,53.6,0.00,WNW,293,3.1,4.6,72,0.00,,,0.00,WUHU216HW,2013-05-02 20:31:00,
2013-05-02 16:36:00,62.6,53.4,0.00,WNW,293,4.9,4.9,72,0.00,,,0.00,WUHU216HW,2013-05-02 20:36:00,
2013-05-02 16:41:00,62.7,53.4,0.00,WNW,293,0.0,4.9,72,0.00,,,0.00,WUHU216HW,2013-05-02 20:41:00,
2013-05-02 16:46:00,62.6,53.4,0.00,WNW,293,7.6,7.6,72,0.00,,,0.00,WUHU216HW,2013-05-02 20:46:00,
2013-05-02 16:51:00,62.6,53.4,0.00,West,270,0.0,7.6,72,0.00,,,0.00,WUHU216HW,2013-05-02 20:51:00,
2013-05-02 16:56:00,62.6,53.4,0.00,West,270,0.0,4.9,72,0.00,,,0.00,WUHU216HW,2013-05-02 20:56:00,
2013-05-02 17:01:00,62.4,53.2,0.00,WNW,293,0.0,6.7,72,0.00,,,0.00,WUHU216HW,2013-05-02 21:01:00,
2013-05-02 17:06:00,62.4,53.6,0.00,WNW,293,0.0,6.7,73,0.00,,,0.00,WUHU216HW,2013-05-02 21:06:00,
2013-05-02 17:11:00,62.4,53.6,0.00,West,270,0.0,5.3,73,0.00,,,0.00,WUHU216HW,2013-05-02 21:11:00,
2013-05-02 17:16:00,62.2,53.4,0.00,West,270,0.0,5.3,73,0.00,,,0.00,WUHU216HW,2013-05-02 21:16:00,
2013-05-02 17:21:00,62.0,53.2,0.00,West,270,1.7,2.9,73,0.00,,,0.00,WUHU216HW,2013-05-02 21:21:00,
2013-05-02 17:27:00,61.8,53.1,0.00,West,270,3.1,3.1,73,0.00,,,0.00,WUHU216HW,2013-05-02 21:27:00,
2013-05-02 17:32:00,61.7,53.4,0.00,West,270,0.0,4.4,74,0.00,,,0.00,WUHU216HW,2013-05-02 21:32:00,
2013-05-02 17:37:00,61.8,53.3,0.00,WNW,293,0.0,4.4,74,0.00,,,0.00,WUHU216HW,2013-05-02 21:37:00,
2013-05-02 17:42:00,61.8,53.4,0.00,West,270,0.0,2.0,74,0.00,,,0.00,WUHU216HW,2013-05-02 21:42:00,
2013-05-02 17:47:00,61.7,53.3,0.00,West,270,0.0,2.0,74,0.00,,,0.00,WUHU216HW,2013-05-02 21:47:00,
2013-05-02 17:52:00,61.5,53.1,0.00,West,270,2.6,3.3,74,0.00,,,0.00,WUHU216HW,2013-05-02 21:52:00,
2013-05-02 17:57:00,61.3,53.0,0.00,WNW,293,4.9,4.9,74,0.00,,,0.00,WUHU216HW,2013-05-02 21:57:00,
2013-05-02 18:02:00,60.9,53.0,0.00,WNW,293,5.3,5.3,75,0.00,,,0.00,WUHU216HW,2013-05-02 22:02:00,
2013-05-02 18:07:00,60.9,53.0,0.00,WNW,293,0.0,5.3,75,0.00,,,0.00,WUHU216HW,2013-05-02 22:07:00,
2013-05-02 18:12:00,60.6,52.7,0.00,West,270,3.8,3.8,75,0.00,,,0.00,WUHU216HW,2013-05-02 22:12:00,
2013-05-02 18:17:00,60.6,53.0,0.00,West,270,4.0,4.2,76,0.00,,,0.00,WUHU216HW,2013-05-02 22:17:00,
2013-05-02 18:22:00,60.4,52.8,0.00,WNW,293,1.1,7.6,76,0.00,,,0.00,WUHU216HW,2013-05-02 22:22:00,
2013-05-02 18:27:00,60.2,52.7,0.00,WNW,293,3.8,7.6,76,0.00,,,0.00,WUHU216HW,2013-05-02 22:27:00,
2013-05-02 18:32:00,60.0,52.5,0.00,West,270,0.0,4.0,76,0.00,,,0.00,WUHU216HW,2013-05-02 22:32:00,
2013-05-02 18:37:00,60.0,52.5,0.00,West,270,0.0,2.4,76,0.00,,,0.00,WUHU216HW,2013-05-02 22:37:00,
2013-05-02 18:42:00,60.0,52.3,0.00,West,270,0.0,2.0,76,0.00,,,0.00,WUHU216HW,2013-05-02 22:42:00,
2013-05-02 18:47:00,59.9,52.3,0.00,WNW,293,0.0,2.9,76,0.00,,,0.00,WUHU216HW,2013-05-02 22:47:00,
2013-05-02 18:52:00,59.9,52.3,0.00,WNW,293,4.4,4.4,76,0.00,,,0.00,WUHU216HW,2013-05-02 22:52:00,
2013-05-02 18:57:00,59.9,52.7,0.00,WNW,293,2.2,4.4,76,0.00,,,0.00,WUHU216HW,2013-05-02 22:57:00,
2013-05-02 19:02:00,59.9,52.7,0.00,WNW,293,0.0,3.1,77,0.00,,,0.00,WUHU216HW,2013-05-02 23:02:00,
2013-05-02 19:07:00,59.7,52.5,0.00,West,270,0.0,1.1,77,0.00,,,0.00,WUHU216HW,2013-05-02 23:07:00,
2013-05-02 19:12:00,59.5,52.3,0.00,WNW,293,0.0,4.9,77,0.00,,,0.00,WUHU216HW,2013-05-02 23:12:00,
2013-05-02 19:17:00,59.5,52.3,0.00,WNW,293,0.0,4.9,77,0.00,,,0.00,WUHU216HW,2013-05-02 23:17:00,
2013-05-02 19:22:00,59.1,52.5,0.00,North,0,0.0,2.6,78,0.00,,,0.00,WUHU216HW,2013-05-02 23:22:00,
2013-05-02 19:27:00,59.0,52.1,0.00,WNW,293,1.5,1.5,78,0.00,,,0.00,WUHU216HW,2013-05-02 23:27:00,
2013-05-02 19:32:00,58.8,51.9,0.00,West,270,0.0,3.5,78,0.00,,,0.00,WUHU216HW,2013-05-02 23:32:00,
2013-05-02 19:37:00,58.8,51.9,0.00,South,180,0.0,3.5,78,0.00,,,0.00,WUHU216HW,2013-05-02 23:37:00,
2013-05-02 19:42:00,58.8,52.3,0.00,WSW,248,0.0,1.1,79,0.00,,,0.00,WUHU216HW,2013-05-02 23:42:00,
2013-05-02 19:47:00,58.2,51.8,0.00,West,270,0.0,1.1,79,0.00,,,0.00,WUHU216HW,2013-05-02 23:47:00,
2013-05-02 19:52:00,58.1,51.6,0.00,WNW,293,0.0,5.8,79,0.00,,,0.00,WUHU216HW,2013-05-02 23:52:00,
2013-05-02 19:57:00,57.9,51.8,0.00,West,270,0.0,7.8,80,0.00,,,0.00,WUHU216HW,2013-05-02 23:57:00,
2013-05-02 20:02:00,57.7,51.6,0.00,West,270,0.0,7.8,80,0.00,,,0.00,WUHU216HW,2013-05-03 00:02:00,
2013-05-02 20:07:00,57.5,51.4,0.00,WNW,293,0.0,6.0,80,0.00,,,0.00,WUHU216HW,2013-05-03 00:07:00,
2013-05-02 20:12:00,57.5,51.7,0.00,WNW,293,2.0,2.0,81,0.00,,,0.00,WUHU216HW,2013-05-03 00:12:00,
2013-05-02 20:17:00,57.3,51.5,0.00,West,270,0.0,2.0,81,0.00,,,0.00,WUHU216HW,2013-05-03 00:17:00,
2013-05-02 20:22:00,57.3,51.5,0.00,WNW,293,0.0,1.7,81,0.00,,,0.00,WUHU216HW,2013-05-03 00:22:00,
2013-05-02 20:27:00,57.2,51.4,0.00,WNW,293,0.0,1.7,81,0.00,,,0.00,WUHU216HW,2013-05-03 00:27:00,
2013-05-02 20:31:00,57.0,51.2,0.00,WNW,293,0.0,0.0,81,0.00,,,0.00,WUHU216HW,2013-05-03 00:31:00,
2013-05-02 20:36:00,57.0,51.2,0.00,WNW,293,0.0,0.0,81,0.00,,,0.00,WUHU216HW,2013-05-03 00:36:00,
2013-05-02 20:41:00,57.0,51.2,0.00,WNW,293,0.0,0.0,81,0.00,,,0.00,WUHU216HW,2013-05-03 00:41:00,
2013-05-02 20:46:00,57.0,51.5,0.00,West,270,0.0,0.0,82,0.00,,,0.00,WUHU216HW,2013-05-03 00:46:00,
2013-05-02 20:52:00,57.0,51.5,0.00,West,270,0.0,0.0,82,0.00,,,0.00,WUHU216HW,2013-05-03 00:52:00,
2013-05-02 20:56:00,57.0,51.5,0.00,WNW,293,0.0,5.1,82,0.00,,,0.00,WUHU216HW,2013-05-03 00:56:00,
2013-05-02 21:02:00,57.0,51.2,0.00,WNW,293,0.0,5.1,81,0.00,,,0.00,WUHU216HW,2013-05-03 01:02:00,
2013-05-02 21:06:00,57.0,51.2,0.00,West,270,4.6,8.7,81,0.00,,,0.00,WUHU216HW,2013-05-03 01:06:00,
2013-05-02 21:12:00,57.0,51.5,0.00,West,270,0.0,8.7,82,0.00,,,0.00,WUHU216HW,2013-05-03 01:12:00,
2013-05-02 21:16:00,57.0,51.5,0.00,West,270,0.0,1.7,82,0.00,,,0.00,WUHU216HW,2013-05-03 01:16:00,
2013-05-02 21:22:00,57.0,51.5,0.00,West,270,0.0,1.7,82,0.00,,,0.00,WUHU216HW,2013-05-03 01:22:00,
2013-05-02 21:26:00,56.8,51.0,0.00,West,270,0.0,0.0,81,0.00,,,0.00,WUHU216HW,2013-05-03 01:26:00,
2013-05-02 21:31:00,56.8,51.0,0.00,West,270,0.0,0.0,81,0.00,,,0.00,WUHU216HW,2013-05-03 01:31:00,
2013-05-02 21:37:00,56.8,51.0,0.00,West,270,0.0,0.0,81,0.00,,,0.00,WUHU216HW,2013-05-03 01:37:00,
2013-05-02 21:41:00,56.8,51.0,0.00,NE,45,0.0,0.0,81,0.00,,,0.00,WUHU216HW,2013-05-03 01:41:00,
2013-05-02 21:47:00,56.8,51.0,0.00,NNE,23,0.0,0.0,81,0.00,,,0.00,WUHU216HW,2013-05-03 01:47:00,
2013-05-02 21:51:00,56.8,51.0,0.00,NNE,23,0.0,0.0,81,0.00,,,0.00,WUHU216HW,2013-05-03 01:51:00,
2013-05-02 21:57:00,56.8,51.0,0.00,NNE,23,0.0,0.0,81,0.00,,,0.00,WUHU216HW,2013-05-03 01:57:00,
2013-05-02 22:01:00,56.8,51.0,0.00,NNE,23,0.0,0.0,81,0.00,,,0.00,WUHU216HW,2013-05-03 02:01:00,
2013-05-02 22:07:00,56.8,51.0,0.00,WNW,293,0.0,0.0,81,0.00,,,0.00,WUHU216HW,2013-05-03 02:07:00,
2013-05-02 22:12:00,56.4,50.6,0.00,WNW,293,0.0,0.0,81,0.00,,,0.00,WUHU216HW,2013-05-03 02:12:00,
2013-05-02 22:17:00,56.4,50.6,0.00,WNW,293,0.0,0.0,81,0.00,,,0.00,WUHU216HW,2013-05-03 02:17:00,
2013-05-02 22:21:00,56.4,50.6,0.00,WNW,293,0.0,0.0,81,0.00,,,0.00,WUHU216HW,2013-05-03 02:21:00,
2013-05-02 22:26:00,56.4,50.6,0.00,North,0,0.0,0.0,81,0.00,,,0.00,WUHU216HW,2013-05-03 02:26:00,
2013-05-02 22:31:00,56.4,51.0,0.00,West,270,0.0,0.0,82,0.00,,,0.00,WUHU216HW,2013-05-03 02:31:00,
2013-05-02 22:36:00,56.4,51.0,0.00,West,270,0.0,0.0,82,0.00,,,0.00,WUHU216HW,2013-05-03 02:36:00,
2013-05-02 22:41:00,56.4,51.0,0.00,West,270,0.0,1.3,82,0.00,,,0.00,WUHU216HW,2013-05-03 02:41:00,
2013-05-02 22:46:00,56.6,50.8,0.00,West,270,0.0,1.3,81,0.00,,,0.00,WUHU216HW,2013-05-03 02:46:00,
2013-05-02 22:51:00,56.4,51.0,0.00,West,270,0.0,0.0,82,0.00,,,0.00,WUHU216HW,2013-05-03 02:51:00,
2013-05-02 22:56:00,56.4,51.0,0.00,West,270,0.0,0.0,82,0.00,,,0.00,WUHU216HW,2013-05-03 02:56:00,
2013-05-02 23:01:00,56.4,51.0,0.00,West,270,0.0,0.0,82,0.00,,,0.00,WUHU216HW,2013-05-03 03:01:00,
2013-05-02 23:06:00,56.4,51.0,0.00,West,270,0.0,0.0,82,0.00,,,0.00,WUHU216HW,2013-05-03 03:06:00,
2013-05-02 23:11:00,56.4,51.0,0.00,WNW,293,0.0,4.0,82,0.00,,,0.00,WUHU216HW,2013-05-03 03:11:00,
2013-05-02 23:16:00,56.4,51.0,0.00,West,270,0.0,4.0,82,0.00,,,0.00,WUHU216HW,2013-05-03 03:16:00,
2013-05-02 23:21:00,56.4,51.0,0.00,West,270,0.0,0.0,82,0.00,,,0.00,WUHU216HW,2013-05-03 03:21:00,
2013-05-02 23:26:00,56.4,51.0,0.00,West,270,0.0,0.0,82,0.00,,,0.00,WUHU216HW,2013-05-03 03:26:00,
2013-05-02 23:31:00,56.4,51.0,0.00,West,270,0.0,0.0,82,0.00,,,0.00,WUHU216HW,2013-05-03 03:31:00,
2013-05-02 23:36:00,56.4,51.0,0.00,West,270,0.0,0.0,82,0.00,,,0.00,WUHU216HW,2013-05-03 03:36:00,
2013-05-02 23:41:00,56.4,51.0,0.00,WNW,293,0.0,3.3,82,0.00,,,0.00,WUHU216HW,2013-05-03 03:41:00,
2013-05-02 23:46:00,56.3,50.8,0.00,WNW,293,0.0,3.3,82,0.00,,,0.00,WUHU216HW,2013-05-03 03:46:00,
2013-05-02 23:51:00,56.3,50.8,0.00,WNW,293,0.0,0.0,82,0.00,,,0.00,WUHU216HW,2013-05-03 03:51:00,
2013-05-02 23:56:00,56.3,50.8,0.00,West,270,0.0,0.0,82,0.00,,,0.00,WUHU216HW,2013-05-03 03:56:00,